Airport ID:KJWN
Update Time (UTC):13/10/2019 23:54
Wind Speed (Knots):5
Wind Direction (Magnetic):210
Temperature (°C):16
Dew Point (°C):4
Humidity (%):47
Altimeter (inHg):29.99
Density Altitude (Feet):
Visibility (Miles):10+
Clouds (Hundreds of feet):CLR
Present Weather:
METAR:METAR KJWN 132350Z AUTO 20005KT 10SM CLR 16/04 A2999 RMK A01

The data displayed is for advisory purposes only and is not to be used for flight planning or operations.

This page is not automatically refreshed. Reload the page to see current data.